sensor_id;sensor_type;location;lat;lon;timestamp;pressure;altitude;pressure_sealevel;temperature;humidity
44453;BME280;30155;52.164;21.236;2022-09-12T00:01:05;99997.23;;;11.19;79.88
44453;BME280;30155;52.164;21.236;2022-09-12T00:05:59;100002.87;;;11.18;79.88
44453;BME280;30155;52.164;21.236;2022-09-12T00:10:50;100002.42;;;11.17;79.83
44453;BME280;30155;52.164;21.236;2022-09-12T00:15:43;100003.31;;;11.18;79.80
44453;BME280;30155;52.164;21.236;2022-09-12T00:20:34;100008.92;;;11.16;79.81
44453;BME280;30155;52.164;21.236;2022-09-12T00:25:25;100003.71;;;11.16;79.87
44453;BME280;30155;52.164;21.236;2022-09-12T00:30:19;100006.31;;;11.16;79.71
44453;BME280;30155;52.164;21.236;2022-09-12T00:35:10;99996.36;;;11.11;79.78
44453;BME280;30155;52.164;21.236;2022-09-12T00:40:01;100007.20;;;11.15;79.71
44453;BME280;30155;52.164;21.236;2022-09-12T00:44:52;100004.16;;;11.15;79.73
44453;BME280;30155;52.164;21.236;2022-09-12T00:54:57;100002.86;;;11.17;79.51
44453;BME280;30155;52.164;21.236;2022-09-12T00:59:52;100012.42;;;11.18;79.50
44453;BME280;30155;52.164;21.236;2022-09-12T01:04:46;100015.01;;;11.21;79.46
44453;BME280;30155;52.164;21.236;2022-09-12T01:09:38;100012.42;;;11.18;79.41
44453;BME280;30155;52.164;21.236;2022-09-12T01:14:32;100021.09;;;11.20;79.27
44453;BME280;30155;52.164;21.236;2022-09-12T01:19:51;100019.33;;;11.16;78.93
44453;BME280;30155;52.164;21.236;2022-09-12T01:51:39;100036.68;;;11.11;79.32
44453;BME280;30155;52.164;21.236;2022-09-12T01:56:34;100037.95;;;11.06;79.32
44453;BME280;30155;52.164;21.236;2022-09-12T02:01:30;100042.27;;;11.02;79.30
44453;BME280;30155;52.164;21.236;2022-09-12T02:06:30;100042.27;;;11.02;79.30
44453;BME280;30155;52.164;21.236;2022-09-12T02:11:22;100046.59;;;11.03;79.33
44453;BME280;30155;52.164;21.236;2022-09-12T02:16:33;100038.80;;;11.00;79.40
44453;BME280;30155;52.164;21.236;2022-09-12T02:21:29;100037.47;;;10.97;79.26
44453;BME280;30155;52.164;21.236;2022-09-12T02:26:22;100043.95;;;10.94;79.37
44453;BME280;30155;52.164;21.236;2022-09-12T02:41:50;100048.70;;;10.88;79.23
44453;BME280;30155;52.164;21.236;2022-09-12T02:46:47;100040.05;;;10.90;79.44
44453;BME280;30155;52.164;21.236;2022-09-12T02:51:40;100046.98;;;10.87;79.29
44453;BME280;30155;52.164;21.236;2022-09-12T02:56:33;100058.22;;;10.85;79.34
44453;BME280;30155;52.164;21.236;2022-09-12T03:07:16;100065.14;;;10.83;79.53
44453;BME280;30155;52.164;21.236;2022-09-12T03:27:48;100072.92;;;10.77;79.42
44453;BME280;30155;52.164;21.236;2022-09-12T03:32:45;100080.73;;;10.77;79.48
44453;BME280;30155;52.164;21.236;2022-09-12T03:37:38;100086.34;;;10.76;79.58
44453;BME280;30155;52.164;21.236;2022-09-12T03:42:29;100088.10;;;10.79;79.55
44453;BME280;30155;52.164;21.236;2022-09-12T03:47:20;100091.56;;;10.79;79.56
44453;BME280;30155;52.164;21.236;2022-09-12T03:52:11;100098.95;;;10.83;79.59
44453;BME280;30155;52.164;21.236;2022-09-12T03:57:03;100099.83;;;10.85;79.48
44453;BME280;30155;52.164;21.236;2022-09-12T04:01:54;100110.25;;;10.88;79.58
44453;BME280;30155;52.164;21.236;2022-09-12T04:06:45;100106.37;;;10.90;79.47
44453;BME280;30155;52.164;21.236;2022-09-12T04:11:36;100103.34;;;10.92;79.47
44453;BME280;30155;52.164;21.236;2022-09-12T04:16:28;100104.66;;;10.93;79.51
44453;BME280;30155;52.164;21.236;2022-09-12T04:21:19;100115.48;;;10.94;79.39
44453;BME280;30155;52.164;21.236;2022-09-12T04:26:12;100112.47;;;10.95;79.59
44453;BME280;30155;52.164;21.236;2022-09-12T04:31:14;100116.80;;;10.97;79.92
44453;BME280;30155;52.164;21.236;2022-09-12T04:36:12;100115.91;;;10.92;80.22
44453;BME280;30155;52.164;21.236;2022-09-12T04:41:22;100131.09;;;10.91;80.46
44453;BME280;30155;52.164;21.236;2022-09-12T04:46:17;100133.66;;;10.88;80.61
44453;BME280;30155;52.164;21.236;2022-09-12T04:51:14;100141.00;;;10.85;81.01
44453;BME280;30155;52.164;21.236;2022-09-12T04:56:09;100137.95;;;10.83;81.04
44453;BME280;30155;52.164;21.236;2022-09-12T05:01:11;100144.46;;;10.83;81.20
44453;BME280;30155;52.164;21.236;2022-09-12T05:06:05;100147.92;;;10.83;81.35
44453;BME280;30155;52.164;21.236;2022-09-12T05:11:04;100156.60;;;10.82;81.44
44453;BME280;30155;52.164;21.236;2022-09-12T05:15:55;100152.69;;;10.81;82.14
44453;BME280;30155;52.164;21.236;2022-09-12T05:20:48;100164.33;;;10.75;82.06
44453;BME280;30155;52.164;21.236;2022-09-12T05:25:39;100159.97;;;10.71;82.21
44453;BME280;30155;52.164;21.236;2022-09-12T05:30:30;100163.89;;;10.72;82.45
44453;BME280;30155;52.164;21.236;2022-09-12T05:35:21;100171.25;;;10.73;82.54
44453;BME280;30155;52.164;21.236;2022-09-12T05:40:12;100172.53;;;10.71;82.64
44453;BME280;30155;52.164;21.236;2022-09-12T05:45:06;100172.97;;;10.71;82.86
44453;BME280;30155;52.164;21.236;2022-09-12T05:49:58;100182.53;;;10.72;82.86
44453;BME280;30155;52.164;21.236;2022-09-12T05:54:49;100178.20;;;10.74;82.90
44453;BME280;30155;52.164;21.236;2022-09-12T05:59:40;100180.40;;;10.77;82.92
44453;BME280;30155;52.164;21.236;2022-09-12T06:04:33;100177.78;;;10.76;82.86
44453;BME280;30155;52.164;21.236;2022-09-12T06:09:24;100171.80;;;10.86;83.09
44453;BME280;30155;52.164;21.236;2022-09-12T06:14:16;100179.61;;;10.91;83.01
44453;BME280;30155;52.164;21.236;2022-09-12T06:19:17;100174.48;;;10.98;83.04
44453;BME280;30155;52.164;21.236;2022-09-12T06:24:06;100171.45;;;11.03;83.10
44453;BME280;30155;52.164;21.236;2022-09-12T06:28:59;100175.87;;;11.11;83.12
44453;BME280;30155;52.164;21.236;2022-09-12T06:33:52;100180.62;;;11.10;82.94
44453;BME280;30155;52.164;21.236;2022-09-12T06:38:44;100184.95;;;11.09;82.94
44453;BME280;30155;52.164;21.236;2022-09-12T06:43:36;100189.27;;;11.09;83.01
44453;BME280;30155;52.164;21.236;2022-09-12T06:48:27;100194.97;;;11.14;82.95
44453;BME280;30155;52.164;21.236;2022-09-12T06:53:19;100190.20;;;11.17;83.12
44453;BME280;30155;52.164;21.236;2022-09-12T06:58:10;100198.03;;;11.20;83.02
44453;BME280;30155;52.164;21.236;2022-09-12T07:03:01;100194.60;;;11.30;83.04
44453;BME280;30155;52.164;21.236;2022-09-12T07:07:52;100200.73;;;11.38;82.88
44453;BME280;30155;52.164;21.236;2022-09-12T07:12:43;100209.39;;;11.37;82.79
44453;BME280;30155;52.164;21.236;2022-09-12T07:17:34;100201.66;;;11.47;82.81
44453;BME280;30155;52.164;21.236;2022-09-12T07:22:25;100214.73;;;11.59;82.91
44453;BME280;30155;52.164;21.236;2022-09-12T07:27:16;100219.92;;;11.60;82.75
44453;BME280;30155;52.164;21.236;2022-09-12T07:32:07;100225.16;;;11.63;82.89
44453;BME280;30155;52.164;21.236;2022-09-12T07:36:58;100229.54;;;11.72;82.72
44453;BME280;30155;52.164;21.236;2022-09-12T07:41:50;100229.58;;;11.77;82.81
44453;BME280;30155;52.164;21.236;2022-09-12T07:46:45;100239.14;;;11.82;82.77
44453;BME280;30155;52.164;21.236;2022-09-12T07:51:34;100240.52;;;11.93;82.72
44453;BME280;30155;52.164;21.236;2022-09-12T07:56:26;100244.45;;;12.01;82.67
44453;BME280;30155;52.164;21.236;2022-09-12T08:01:20;100251.86;;;12.06;82.59
44453;BME280;30155;52.164;21.236;2022-09-12T08:06:15;100257.06;;;12.06;82.34
44453;BME280;30155;52.164;21.236;2022-09-12T08:11:13;100259.62;;;12.00;82.51
44453;BME280;30155;52.164;21.236;2022-09-12T08:16:10;100267.44;;;11.94;82.15
44453;BME280;30155;52.164;21.236;2022-09-12T08:21:11;100264.40;;;11.96;82.54
44453;BME280;30155;52.164;21.236;2022-09-12T08:26:04;100265.31;;;12.09;82.22
44453;BME280;30155;52.164;21.236;2022-09-12T08:31:11;100257.56;;;12.26;82.27
44453;BME280;30155;52.164;21.236;2022-09-12T08:36:06;100264.09;;;12.35;82.27
44453;BME280;30155;52.164;21.236;2022-09-12T08:41:10;100259.77;;;12.46;81.82
44453;BME280;30155;52.164;21.236;2022-09-12T08:46:10;100264.59;;;12.67;81.51
44453;BME280;30155;52.164;21.236;2022-09-12T08:51:09;100268.07;;;12.76;81.32
44453;BME280;30155;52.164;21.236;2022-09-12T08:56:04;100265.90;;;12.84;81.63
44453;BME280;30155;52.164;21.236;2022-09-12T09:11:44;100265.47;;;13.27;80.51
44453;BME280;30155;52.164;21.236;2022-09-12T09:16:43;100264.58;;;13.53;80.45
44453;BME280;30155;52.164;21.236;2022-09-12T09:21:49;100264.42;;;14.02;79.37
44453;BME280;30155;52.164;21.236;2022-09-12T09:26:48;100274.92;;;13.87;79.56
44453;BME280;30155;52.164;21.236;2022-09-12T09:31:41;100271.45;;;13.83;79.03
44453;BME280;30155;52.164;21.236;2022-09-12T09:37:01;100278.34;;;14.03;78.83
44453;BME280;30155;52.164;21.236;2022-09-12T09:47:21;100294.17;;;13.61;78.76
44453;BME280;30155;52.164;21.236;2022-09-12T09:52:15;100290.69;;;13.50;78.67
44453;BME280;30155;52.164;21.236;2022-09-12T10:02:28;100299.41;;;13.43;79.16
44453;BME280;30155;52.164;21.236;2022-09-12T10:07:20;100301.13;;;13.50;78.76
44453;BME280;30155;52.164;21.236;2022-09-12T10:12:23;100303.33;;;13.49;79.34
44453;BME280;30155;52.164;21.236;2022-09-12T10:17:30;100309.84;;;13.41;79.27
44453;BME280;30155;52.164;21.236;2022-09-12T10:22:26;100321.20;;;13.32;79.26
44453;BME280;30155;52.164;21.236;2022-09-12T10:27:24;100320.27;;;13.30;79.43
44453;BME280;30155;52.164;21.236;2022-09-12T10:37:35;100322.03;;;13.50;79.35
44453;BME280;30155;52.164;21.236;2022-09-12T10:47:41;100335.12;;;13.34;78.93
44453;BME280;30155;52.164;21.236;2022-09-12T10:52:32;100338.15;;;13.37;79.17
44453;BME280;30155;52.164;21.236;2022-09-12T10:57:52;100333.77;;;13.65;79.20
44453;BME280;30155;52.164;21.236;2022-09-12T11:03:08;100335.89;;;13.92;78.37
44453;BME280;30155;52.164;21.236;2022-09-12T11:08:03;100340.25;;;13.88;77.83
44453;BME280;30155;52.164;21.236;2022-09-12T11:29:46;100349.59;;;14.54;76.92
44453;BME280;30155;52.164;21.236;2022-09-12T11:35:04;100351.41;;;14.37;76.90
44453;BME280;30155;52.164;21.236;2022-09-12T11:39:53;100358.48;;;14.08;76.90
44453;BME280;30155;52.164;21.236;2022-09-12T11:44:52;100353.73;;;13.92;77.03
44453;BME280;30155;52.164;21.236;2022-09-12T11:49:53;100357.24;;;13.90;76.85
44453;BME280;30155;52.164;21.236;2022-09-12T12:00:16;100352.77;;;14.20;76.75
44453;BME280;30155;52.164;21.236;2022-09-12T12:05:31;100351.50;;;14.07;77.09
44453;BME280;30155;52.164;21.236;2022-09-12T12:10:44;100355.05;;;13.96;77.05
44453;BME280;30155;52.164;21.236;2022-09-12T12:15:46;100355.96;;;13.79;77.02
44453;BME280;30155;52.164;21.236;2022-09-12T12:20:38;100355.09;;;13.74;77.30
44453;BME280;30155;52.164;21.236;2022-09-12T12:25:49;100355.07;;;13.82;77.19
44453;BME280;30155;52.164;21.236;2022-09-12T12:40:53;100361.42;;;14.37;76.39
44453;BME280;30155;52.164;21.236;2022-09-12T12:45:46;100358.41;;;14.28;76.19
44453;BME280;30155;52.164;21.236;2022-09-12T12:50:38;100356.65;;;14.35;76.33
44453;BME280;30155;52.164;21.236;2022-09-12T12:55:36;100358.73;;;14.62;75.93
44453;BME280;30155;52.164;21.236;2022-09-12T13:00:33;100367.39;;;14.73;75.94
44453;BME280;30155;52.164;21.236;2022-09-12T13:05:28;100369.66;;;14.60;75.62
44453;BME280;30155;52.164;21.236;2022-09-12T13:10:24;100370.98;;;14.47;76.03
44453;BME280;30155;52.164;21.236;2022-09-12T13:20:48;100374.95;;;14.34;75.69
44453;BME280;30155;52.164;21.236;2022-09-12T13:25:43;100377.98;;;14.39;75.83
44453;BME280;30155;52.164;21.236;2022-09-12T13:30:39;100377.47;;;14.57;75.86
44453;BME280;30155;52.164;21.236;2022-09-12T13:41:12;100370.02;;;14.70;75.06
44453;BME280;30155;52.164;21.236;2022-09-12T13:45:59;100369.55;;;14.75;74.92
44453;BME280;30155;52.164;21.236;2022-09-12T13:50:59;100366.41;;;14.90;74.67
44453;BME280;30155;52.164;21.236;2022-09-12T13:55:59;100367.25;;;14.95;74.77
44453;BME280;30155;52.164;21.236;2022-09-12T14:05:59;100372.21;;;14.71;73.96
44453;BME280;30155;52.164;21.236;2022-09-12T14:10:50;100381.39;;;14.63;74.22
44453;BME280;30155;52.164;21.236;2022-09-12T14:15:47;100384.49;;;14.58;74.30
44453;BME280;30155;52.164;21.236;2022-09-12T14:20:40;100384.49;;;14.58;73.98
44453;BME280;30155;52.164;21.236;2022-09-12T14:25:37;100380.98;;;14.59;74.22
44453;BME280;30155;52.164;21.236;2022-09-12T14:30:35;100384.02;;;14.54;73.94
44453;BME280;30155;52.164;21.236;2022-09-12T14:35:29;100379.24;;;14.48;74.19
44453;BME280;30155;52.164;21.236;2022-09-12T14:40:22;100381.90;;;14.42;74.22
44453;BME280;30155;52.164;21.236;2022-09-12T14:45:16;100390.65;;;14.32;73.92
44453;BME280;30155;52.164;21.236;2022-09-12T14:50:20;100393.71;;;14.28;74.29
44453;BME280;30155;52.164;21.236;2022-09-12T15:00:16;100392.44;;;14.16;74.38
44453;BME280;30155;52.164;21.236;2022-09-12T15:10:22;100392.05;;;14.06;74.53
44453;BME280;30155;52.164;21.236;2022-09-12T15:15:21;100394.22;;;14.02;74.79
44453;BME280;30155;52.164;21.236;2022-09-12T15:20:13;100395.11;;;13.99;74.75
44453;BME280;30155;52.164;21.236;2022-09-12T15:25:05;100402.95;;;13.96;74.66
44453;BME280;30155;52.164;21.236;2022-09-12T15:29:57;100393.39;;;13.92;74.72
44453;BME280;30155;52.164;21.236;2022-09-12T15:34:48;100395.58;;;13.88;74.85
44453;BME280;30155;52.164;21.236;2022-09-12T15:39:39;100402.52;;;13.86;74.78
44453;BME280;30155;52.164;21.236;2022-09-12T15:44:31;100404.27;;;13.82;74.85
44453;BME280;30155;52.164;21.236;2022-09-12T15:49:22;100401.24;;;13.81;75.11
44453;BME280;30155;52.164;21.236;2022-09-12T15:54:14;100411.69;;;13.78;75.42
44453;BME280;30155;52.164;21.236;2022-09-12T15:59:06;100415.19;;;13.76;75.17
44453;BME280;30155;52.164;21.236;2022-09-12T16:03:57;100418.66;;;13.71;75.46
44453;BME280;30155;52.164;21.236;2022-09-12T16:08:48;100414.31;;;13.67;75.67
44453;BME280;30155;52.164;21.236;2022-09-12T16:13:40;100412.58;;;13.63;75.90
44453;BME280;30155;52.164;21.236;2022-09-12T16:18:31;100416.94;;;13.58;76.23
44453;BME280;30155;52.164;21.236;2022-09-12T16:23:23;100411.28;;;13.54;76.14
44453;BME280;30155;52.164;21.236;2022-09-12T16:28:14;100415.19;;;13.49;76.31
44453;BME280;30155;52.164;21.236;2022-09-12T16:33:05;100422.14;;;13.44;76.41
44453;BME280;30155;52.164;21.236;2022-09-12T16:37:59;100418.66;;;13.41;76.50
44453;BME280;30155;52.164;21.236;2022-09-12T16:42:51;100407.79;;;13.37;76.78
44453;BME280;30155;52.164;21.236;2022-09-12T16:47:45;100412.95;;;13.30;76.99
44453;BME280;30155;52.164;21.236;2022-09-12T16:52:37;100417.33;;;13.25;77.16
44453;BME280;30155;52.164;21.236;2022-09-12T16:57:28;100409.03;;;13.21;77.29
44453;BME280;30155;52.164;21.236;2022-09-12T17:02:19;100406.44;;;13.16;77.39
44453;BME280;30155;52.164;21.236;2022-09-12T17:07:11;100418.17;;;13.15;77.64
44453;BME280;30155;52.164;21.236;2022-09-12T17:12:02;100414.69;;;13.10;77.75
44453;BME280;30155;52.164;21.236;2022-09-12T17:16:54;100416.86;;;13.06;77.77
44453;BME280;30155;52.164;21.236;2022-09-12T17:21:45;100415.10;;;13.05;77.95
44453;BME280;30155;52.164;21.236;2022-09-12T17:26:38;100418.59;;;13.01;77.92
44453;BME280;30155;52.164;21.236;2022-09-12T17:31:30;100418.57;;;12.97;78.07
44453;BME280;30155;52.164;21.236;2022-09-12T17:36:23;100425.51;;;12.92;78.23
44453;BME280;30155;52.164;21.236;2022-09-12T17:41:20;100432.91;;;12.88;78.39
44453;BME280;30155;52.164;21.236;2022-09-12T17:46:13;100429.84;;;12.87;78.79
44453;BME280;30155;52.164;21.236;2022-09-12T17:51:13;100425.51;;;12.86;78.96
44453;BME280;30155;52.164;21.236;2022-09-12T17:56:06;100426.35;;;12.84;78.94
44453;BME280;30155;52.164;21.236;2022-09-12T18:01:06;100429.84;;;12.81;79.15
44453;BME280;30155;52.164;21.236;2022-09-12T18:06:21;100427.65;;;12.77;79.26
44453;BME280;30155;52.164;21.236;2022-09-12T18:11:13;100427.63;;;12.73;79.40
44453;BME280;30155;52.164;21.236;2022-09-12T18:16:08;100425.02;;;12.70;79.42
44453;BME280;30155;52.164;21.236;2022-09-12T18:21:02;100425.42;;;12.68;79.44
44453;BME280;30155;52.164;21.236;2022-09-12T18:26:03;100428.92;;;12.67;79.42
44453;BME280;30155;52.164;21.236;2022-09-12T18:30:56;100426.74;;;12.65;79.63
44453;BME280;30155;52.164;21.236;2022-09-12T18:35:48;100428.02;;;12.62;79.75
44453;BME280;30155;52.164;21.236;2022-09-12T18:40:39;100427.13;;;12.56;79.92
44453;BME280;30155;52.164;21.236;2022-09-12T18:45:30;100424.94;;;12.53;79.98
44453;BME280;30155;52.164;21.236;2022-09-12T18:50:21;100431.44;;;12.45;79.98
44453;BME280;30155;52.164;21.236;2022-09-12T18:55:14;100429.66;;;12.36;80.04
44453;BME280;30155;52.164;21.236;2022-09-12T19:00:06;100426.13;;;12.30;80.13
44453;BME280;30155;52.164;21.236;2022-09-12T19:04:58;100426.97;;;12.23;80.20
44453;BME280;30155;52.164;21.236;2022-09-12T19:09:49;100421.73;;;12.16;80.20
44453;BME280;30155;52.164;21.236;2022-09-12T19:14:40;100422.56;;;12.09;80.18
44453;BME280;30155;52.164;21.236;2022-09-12T19:19:32;100423.37;;;12.05;80.24
44453;BME280;30155;52.164;21.236;2022-09-12T19:24:23;100419.02;;;12.01;80.33
44453;BME280;30155;52.164;21.236;2022-09-12T19:29:15;100420.28;;;11.96;80.33
44453;BME280;30155;52.164;21.236;2022-09-12T19:34:06;100418.99;;;11.95;80.52
44453;BME280;30155;52.164;21.236;2022-09-12T19:38:58;100419.39;;;11.93;80.53
44453;BME280;30155;52.164;21.236;2022-09-12T19:43:49;100418.48;;;11.88;80.81
44453;BME280;30155;52.164;21.236;2022-09-12T19:48:41;100427.09;;;11.82;80.84
44453;BME280;30155;52.164;21.236;2022-09-12T19:53:32;100416.69;;;11.80;81.06
44453;BME280;30155;52.164;21.236;2022-09-12T19:58:23;100409.30;;;11.81;81.07
44453;BME280;30155;52.164;21.236;2022-09-12T20:03:14;100415.84;;;11.85;81.24
44453;BME280;30155;52.164;21.236;2022-09-12T20:08:05;100420.17;;;11.86;81.20
44453;BME280;30155;52.164;21.236;2022-09-12T20:12:56;100423.20;;;11.80;81.04
44453;BME280;30155;52.164;21.236;2022-09-12T20:17:53;100414.42;;;11.69;81.00
44453;BME280;30155;52.164;21.236;2022-09-12T20:22:50;100409.14;;;11.60;81.16
44453;BME280;30155;52.164;21.236;2022-09-12T20:27:42;100415.12;;;11.50;80.93
44453;BME280;30155;52.164;21.236;2022-09-12T20:32:34;100407.70;;;11.41;81.10
44453;BME280;30155;52.164;21.236;2022-09-12T20:37:25;100406.36;;;11.38;81.15
44453;BME280;30155;52.164;21.236;2022-09-12T20:42:16;100412.39;;;11.33;80.97
44453;BME280;30155;52.164;21.236;2022-09-12T20:47:07;100406.21;;;11.20;80.89
44453;BME280;30155;52.164;21.236;2022-09-12T20:51:59;100411.29;;;11.08;80.80
44453;BME280;30155;52.164;21.236;2022-09-12T20:56:51;100405.14;;;11.01;80.92
44453;BME280;30155;52.164;21.236;2022-09-12T21:01:42;100409.81;;;10.92;80.87
44453;BME280;30155;52.164;21.236;2022-09-12T21:06:33;100417.46;;;10.78;80.41
44453;BME280;30155;52.164;21.236;2022-09-12T21:11:26;100416.91;;;10.66;80.56
44453;BME280;30155;52.164;21.236;2022-09-12T21:16:19;100409.80;;;10.53;80.85
44453;BME280;30155;52.164;21.236;2022-09-12T21:21:13;100409.80;;;10.53;80.85
44453;BME280;30155;52.164;21.236;2022-09-12T21:26:05;100407.14;;;10.47;80.53
44453;BME280;30155;52.164;21.236;2022-09-12T21:30:59;100406.25;;;10.45;80.76
44453;BME280;30155;52.164;21.236;2022-09-12T21:35:50;100411.36;;;10.39;80.55
44453;BME280;30155;52.164;21.236;2022-09-12T21:40:42;100408.33;;;10.38;80.87
44453;BME280;30155;52.164;21.236;2022-09-12T21:45:33;100408.33;;;10.38;80.87
44453;BME280;30155;52.164;21.236;2022-09-12T21:50:26;100411.81;;;10.40;80.84
44453;BME280;30155;52.164;21.236;2022-09-12T21:55:18;100407.03;;;10.38;80.98
44453;BME280;30155;52.164;21.236;2022-09-12T22:00:12;100407.03;;;10.38;80.98
44453;BME280;30155;52.164;21.236;2022-09-12T22:05:07;100405.75;;;10.41;81.11
44453;BME280;30155;52.164;21.236;2022-09-12T22:10:00;100401.01;;;10.42;81.02
44453;BME280;30155;52.164;21.236;2022-09-12T22:14:51;100401.01;;;10.42;81.02
44453;BME280;30155;52.164;21.236;2022-09-12T22:19:44;100393.16;;;10.39;81.08
44453;BME280;30155;52.164;21.236;2022-09-12T22:24:36;100395.29;;;10.35;81.12
44453;BME280;30155;52.164;21.236;2022-09-12T22:29:29;100393.94;;;10.32;81.12
44453;BME280;30155;52.164;21.236;2022-09-12T22:34:20;100390.38;;;10.26;81.13
44453;BME280;30155;52.164;21.236;2022-09-12T22:39:12;100388.65;;;10.25;81.12
44453;BME280;30155;52.164;21.236;2022-09-12T22:44:03;100389.01;;;10.20;81.17
44453;BME280;30155;52.164;21.236;2022-09-12T22:48:54;100388.53;;;10.16;81.18
44453;BME280;30155;52.164;21.236;2022-09-12T22:53:45;100384.51;;;10.08;81.10
44453;BME280;30155;52.164;21.236;2022-09-12T22:58:37;100384.03;;;10.04;81.25
44453;BME280;30155;52.164;21.236;2022-09-12T23:03:28;100381.44;;;10.04;81.46
44453;BME280;30155;52.164;21.236;2022-09-12T23:08:19;100381.81;;;10.01;81.18
44453;BME280;30155;52.164;21.236;2022-09-12T23:13:11;100367.58;;;10.04;81.47
44453;BME280;30155;52.164;21.236;2022-09-12T23:18:02;100367.58;;;10.04;81.47
44453;BME280;30155;52.164;21.236;2022-09-12T23:22:54;100372.72;;;10.01;81.20
44453;BME280;30155;52.164;21.236;2022-09-12T23:27:45;100372.72;;;10.01;81.20
44453;BME280;30155;52.164;21.236;2022-09-12T23:32:37;100372.60;;;9.91;81.11
44453;BME280;30155;52.164;21.236;2022-09-12T23:37:28;100358.63;;;9.83;81.06
44453;BME280;30155;52.164;21.236;2022-09-12T23:42:20;100366.69;;;9.72;80.91
44453;BME280;30155;52.164;21.236;2022-09-12T23:47:11;100352.25;;;9.61;80.84
44453;BME280;30155;52.164;21.236;2022-09-12T23:52:03;100356.02;;;9.52;80.80
44453;BME280;30155;52.164;21.236;2022-09-12T23:56:54;100347.59;;;9.40;80.52
